createdAt,value
2022-10-28T00:01:41.933Z,101527.34
2022-10-28T00:04:15.381Z,101526.81
2022-10-28T00:06:47.425Z,101520.84
2022-10-28T00:09:38.521Z,101520.59
2022-10-28T00:12:11.381Z,101526.94
2022-10-28T00:14:46.079Z,101518.31
2022-10-28T00:17:17.581Z,101514.47
2022-10-28T00:19:50.735Z,101516.03
2022-10-28T00:22:22.066Z,101522.06
2022-10-28T00:24:55.052Z,101526.19
2022-10-28T00:27:24.973Z,101523.25
2022-10-28T00:29:57.407Z,101524.87
2022-10-28T00:32:28.807Z,101523.91
2022-10-28T00:35:03.713Z,101527.09
2022-10-28T00:37:56.718Z,101517.87
2022-10-28T00:40:34.261Z,101517.31
2022-10-28T00:43:07.169Z,101522.72
2022-10-28T00:45:39.832Z,101519.25
2022-10-28T00:48:11.828Z,101523.06
2022-10-28T00:50:52.696Z,101524.78
2022-10-28T00:53:27.874Z,101520.25
2022-10-28T00:56:01.935Z,101520.59
2022-10-28T00:58:53.703Z,101516.38
2022-10-28T01:01:26.259Z,101515.34
2022-10-28T01:03:58.164Z,101524.75
2022-10-28T01:06:36.801Z,101512.66
2022-10-28T01:09:08.625Z,101513.94
2022-10-28T01:12:18.846Z,101513.91
2022-10-28T01:15:32.428Z,101516.28
2022-10-28T01:18:47.724Z,101514.19
2022-10-28T01:21:38.557Z,101517.44
2022-10-28T01:24:39.156Z,101511.66
2022-10-28T01:27:29.185Z,101512.44
2022-10-28T01:30:05.583Z,101496.06
2022-10-28T01:32:44.827Z,101499.31
2022-10-28T01:35:17.805Z,101495.44
2022-10-28T01:38:00.347Z,101496.28
2022-10-28T01:40:38.896Z,101501.19
2022-10-28T01:43:20.505Z,101491.88
2022-10-28T01:46:17.890Z,101500.91
2022-10-28T01:49:05.704Z,101498.72
2022-10-28T01:51:50.629Z,101495.06
2022-10-28T01:54:25.388Z,101496.09
2022-10-28T01:57:10.538Z,101499.06
2022-10-28T01:59:42.025Z,101498.22
2022-10-28T02:02:17.519Z,101499.62
2022-10-28T02:05:47.814Z,101497.59
2022-10-28T02:08:47.545Z,101491.50
2022-10-28T02:11:28.595Z,101495.75
2022-10-28T02:14:14.058Z,101487.81
2022-10-28T02:17:00.413Z,101499.91
2022-10-28T02:19:39.156Z,101487.13
2022-10-28T02:22:16.281Z,101485.69
2022-10-28T02:25:14.433Z,101498.22
2022-10-28T02:28:08.624Z,101487.59
2022-10-28T02:30:44.919Z,101490.16
2022-10-28T02:33:32.589Z,101485.84
2022-10-28T02:36:12.489Z,101496.97
2022-10-28T02:38:48.210Z,101492.56
2022-10-28T02:41:24.780Z,101502.94
2022-10-28T02:44:03.515Z,101496.75
2022-10-28T02:46:33.458Z,101501.87
2022-10-28T02:49:19.768Z,101497.13
2022-10-28T02:52:00.731Z,101489.62
2022-10-28T02:54:35.059Z,101494.19
2022-10-28T02:57:09.347Z,101489.72
2022-10-28T02:59:39.376Z,101486.75
2022-10-28T03:02:09.264Z,101483.81
2022-10-28T03:04:42.542Z,101479.47
2022-10-28T03:07:10.681Z,101478.78
2022-10-28T03:09:39.837Z,101479.16
2022-10-28T03:12:08.239Z,101477.66
2022-10-28T03:14:36.492Z,101487.03
2022-10-28T03:17:05.827Z,101482.06
2022-10-28T03:19:34.629Z,101486.59
2022-10-28T03:22:08.566Z,101483.34
2022-10-28T03:24:40.526Z,101484.25
2022-10-28T03:27:09.874Z,101493.81
2022-10-28T03:29:44.934Z,101493.00
2022-10-28T03:32:15.364Z,101499.44
2022-10-28T03:34:45.216Z,101484.25
2022-10-28T03:37:18.644Z,101491.59
2022-10-28T03:39:47.351Z,101488.97
2022-10-28T03:42:15.254Z,101493.72
2022-10-28T03:44:53.732Z,101484.47
2022-10-28T03:47:22.551Z,101490.19
2022-10-28T03:49:55.674Z,101489.84
2022-10-28T03:52:25.932Z,101487.31
2022-10-28T03:54:54.495Z,101486.38
2022-10-28T03:57:24.001Z,101476.19
2022-10-28T03:59:59.546Z,101482.66
2022-10-28T04:02:27.461Z,101482.78
2022-10-28T04:04:57.947Z,101486.66
2022-10-28T04:07:26.221Z,101480.41
2022-10-28T04:09:54.385Z,101478.91
2022-10-28T04:12:26.316Z,101475.81
2022-10-28T04:14:59.682Z,101474.81
2022-10-28T04:17:29.754Z,101473.69
2022-10-28T04:19:57.511Z,101458.81
2022-10-28T04:22:30.072Z,101471.69
2022-10-28T04:25:00.041Z,101468.50
2022-10-28T04:27:48.779Z,101465.00
2022-10-28T04:30:16.896Z,101470.50
2022-10-28T04:32:45.996Z,101465.81
2022-10-28T04:35:15.922Z,101465.75
2022-10-28T04:37:44.292Z,101459.00
2022-10-28T04:40:12.886Z,101453.75
2022-10-28T04:42:43.219Z,101460.25
2022-10-28T04:45:11.610Z,101449.75
2022-10-28T04:47:39.669Z,101456.63
2022-10-28T04:50:08.873Z,101451.72
2022-10-28T04:52:36.733Z,101452.69
2022-10-28T04:55:05.134Z,101443.16
2022-10-28T04:57:34.135Z,101440.06
2022-10-28T05:00:02.288Z,101443.22
2022-10-28T05:02:31.777Z,101445.59
2022-10-28T05:05:03.677Z,101446.78
2022-10-28T05:07:31.906Z,101452.62
2022-10-28T05:10:01.573Z,101453.13
2022-10-28T05:12:30.498Z,101450.97
2022-10-28T05:14:58.552Z,101445.28
2022-10-28T05:17:26.791Z,101451.94
2022-10-28T05:19:54.564Z,101444.03
2022-10-28T05:22:22.210Z,101446.09
2022-10-28T05:24:50.900Z,101458.56
2022-10-28T05:27:21.084Z,101460.50
2022-10-28T05:29:49.381Z,101462.97
2022-10-28T05:32:18.036Z,101453.22
2022-10-28T05:34:46.586Z,101461.66
2022-10-28T05:37:14.988Z,101466.06
2022-10-28T05:39:43.915Z,101474.72
2022-10-28T05:42:12.062Z,101465.00
2022-10-28T05:44:41.159Z,101467.56
2022-10-28T05:47:11.434Z,101473.13
2022-10-28T05:49:39.399Z,101472.75
2022-10-28T05:52:08.798Z,101475.25
2022-10-28T05:54:37.752Z,101474.81
2022-10-28T05:57:06.247Z,101484.66
2022-10-28T05:59:59.752Z,101478.50
2022-10-28T06:02:27.823Z,101481.34
2022-10-28T06:04:57.702Z,101484.28
2022-10-28T06:07:29.299Z,101480.91
2022-10-28T06:10:02.419Z,101489.53
2022-10-28T06:15:21.183Z,101495.03
2022-10-28T06:17:50.809Z,101496.25
2022-10-28T06:20:20.826Z,101491.09
2022-10-28T06:22:51.546Z,101490.94
2022-10-28T06:25:26.317Z,101488.75
2022-10-28T06:27:56.259Z,101485.13
2022-10-28T06:30:37.742Z,101491.16
2022-10-28T06:33:06.499Z,101499.91
2022-10-28T06:35:35.321Z,101496.44
2022-10-28T06:38:07.221Z,101500.59
2022-10-28T06:40:38.334Z,101501.00
2022-10-28T06:43:07.601Z,101500.53
2022-10-28T06:45:36.033Z,101500.09
2022-10-28T06:48:07.206Z,101494.22
2022-10-28T06:50:35.915Z,101496.09
2022-10-28T06:53:03.715Z,101505.16
2022-10-28T06:55:34.460Z,101511.66
2022-10-28T06:58:02.758Z,101510.72
2022-10-28T07:03:05.370Z,101515.59
2022-10-28T07:06:23.285Z,101513.75
2022-10-28T07:09:22.462Z,101514.59
2022-10-28T07:12:25.576Z,101528.41
2022-10-28T07:15:31.401Z,101529.66
2022-10-28T07:18:07.430Z,101521.69
2022-10-28T07:20:42.956Z,101525.59
2022-10-28T07:23:11.250Z,101515.59
2022-10-28T07:25:40.559Z,101523.62
2022-10-28T07:28:08.647Z,101516.97
2022-10-28T07:30:36.683Z,101514.50
2022-10-28T07:33:06.300Z,101513.25
2022-10-28T07:35:36.855Z,101518.16
2022-10-28T07:38:05.808Z,101511.75
2022-10-28T07:40:33.809Z,101511.84
2022-10-28T07:43:02.443Z,101524.50
2022-10-28T07:45:31.474Z,101525.37
2022-10-28T07:47:59.388Z,101531.31
2022-10-28T07:50:27.147Z,101531.19
2022-10-28T07:52:55.473Z,101534.78
2022-10-28T07:55:24.396Z,101534.16
2022-10-28T07:57:52.612Z,101531.63
2022-10-28T08:00:21.971Z,101529.31
2022-10-28T08:02:50.438Z,101530.28
2022-10-28T08:05:18.705Z,101531.13
2022-10-28T08:07:59.241Z,101530.44
2022-10-28T08:10:28.700Z,101529.66
2022-10-28T08:12:58.335Z,101529.22
2022-10-28T08:15:27.377Z,101523.94
2022-10-28T08:17:57.023Z,101518.03
2022-10-28T08:20:28.114Z,101514.13
2022-10-28T08:22:59.069Z,101510.69
2022-10-28T08:25:29.313Z,101507.72
2022-10-28T08:27:57.878Z,101506.06
2022-10-28T08:30:25.928Z,101507.13
2022-10-28T08:32:56.466Z,101507.66
2022-10-28T08:35:25.887Z,101505.81
2022-10-28T08:37:55.167Z,101502.91
2022-10-28T08:40:33.692Z,101518.75
2022-10-28T08:43:09.130Z,101525.28
2022-10-28T08:45:57.199Z,101519.19
2022-10-28T08:48:30.030Z,101520.19
2022-10-28T08:51:07.003Z,101522.25
2022-10-28T08:53:41.422Z,101521.78
2022-10-28T08:56:26.636Z,101531.53
2022-10-28T08:59:00.320Z,101525.53
2022-10-28T09:01:43.226Z,101524.50
2022-10-28T09:04:26.211Z,101543.16
2022-10-28T09:06:54.450Z,101542.00
2022-10-28T09:09:23.635Z,101540.78
2022-10-28T09:12:20.131Z,101542.50
2022-10-28T09:14:52.220Z,101545.03
2022-10-28T09:17:40.423Z,101543.56
2022-10-28T09:20:42.005Z,101545.72
2022-10-28T09:23:19.879Z,101543.28
2022-10-28T09:26:21.309Z,101532.81
2022-10-28T09:29:00.130Z,101533.00
2022-10-28T09:31:41.958Z,101532.44
2022-10-28T09:34:35.199Z,101537.47
2022-10-28T09:37:22.430Z,101541.78
2022-10-28T09:39:56.459Z,101539.53
2022-10-28T09:43:07.651Z,101532.34
2022-10-28T09:45:40.017Z,101534.31
2022-10-28T09:48:25.330Z,101530.12
2022-10-28T09:51:00.925Z,101526.09
2022-10-28T09:53:51.207Z,101528.44
2022-10-28T09:56:27.450Z,101540.31
2022-10-28T09:59:03.363Z,101545.63
2022-10-28T10:01:36.390Z,101542.41
2022-10-28T10:04:16.115Z,101537.75
2022-10-28T10:06:47.237Z,101532.75
2022-10-28T10:09:24.430Z,101538.94
2022-10-28T10:11:58.101Z,101531.22
2022-10-28T10:14:38.848Z,101526.75
2022-10-28T10:17:13.595Z,101523.97
2022-10-28T10:20:17.535Z,101524.91
2022-10-28T10:22:51.539Z,101534.81
2022-10-28T10:25:25.322Z,101544.12
2022-10-28T10:27:59.511Z,101529.84
2022-10-28T10:30:34.279Z,101535.84
2022-10-28T10:33:03.356Z,101537.78
2022-10-28T10:35:33.854Z,101536.31
2022-10-28T10:38:08.659Z,101529.66
2022-10-28T10:40:49.899Z,101517.91
2022-10-28T10:43:19.166Z,101526.09
2022-10-28T10:46:08.035Z,101529.66
2022-10-28T10:48:43.662Z,101524.19
2022-10-28T10:51:24.891Z,101529.94
2022-10-28T10:53:59.929Z,101521.47
2022-10-28T10:56:30.697Z,101513.94
2022-10-28T10:59:04.613Z,101518.13
2022-10-28T11:01:36.941Z,101519.66
2022-10-28T11:04:07.304Z,101524.13
2022-10-28T11:06:39.800Z,101519.47
2022-10-28T11:09:37.098Z,101511.97
2022-10-28T11:12:17.341Z,101511.87
2022-10-28T11:14:57.806Z,101516.06
2022-10-28T11:17:34.667Z,101514.25
2022-10-28T11:20:25.085Z,101509.22
2022-10-28T11:23:26.335Z,101514.81
2022-10-28T11:25:55.478Z,101507.53
2022-10-28T11:28:45.103Z,101516.53
2022-10-28T11:31:17.302Z,101514.81
2022-10-28T11:34:12.127Z,101513.91
2022-10-28T11:36:52.995Z,101513.09
2022-10-28T11:39:36.982Z,101516.94
2022-10-28T11:42:23.678Z,101504.03
2022-10-28T11:45:15.312Z,101504.84
2022-10-28T11:48:10.766Z,101498.13
2022-10-28T11:50:41.290Z,101502.25
2022-10-28T11:53:29.110Z,101492.78
2022-10-28T11:56:44.887Z,101489.50
2022-10-28T11:59:33.560Z,101487.69
2022-10-28T12:02:21.404Z,101487.13
2022-10-28T12:05:10.798Z,101479.47
2022-10-28T12:08:15.441Z,101477.09
2022-10-28T12:10:50.727Z,101477.47
2022-10-28T12:13:50.666Z,101478.88
2022-10-28T12:16:23.076Z,101466.94
2022-10-28T12:18:58.551Z,101457.09
2022-10-28T12:21:32.396Z,101460.06
2022-10-28T12:24:00.653Z,101465.62
2022-10-28T12:26:42.117Z,101465.47
2022-10-28T12:29:22.240Z,101461.78
2022-10-28T12:31:59.868Z,101464.31
2022-10-28T12:35:11.935Z,101458.22
2022-10-28T12:37:55.062Z,101454.78
2022-10-28T12:40:29.922Z,101449.69
2022-10-28T12:43:05.551Z,101446.91
2022-10-28T12:45:39.023Z,101449.59
2022-10-28T12:48:32.826Z,101445.56
2022-10-28T12:51:11.392Z,101441.66
2022-10-28T12:53:56.949Z,101446.13
2022-10-28T12:56:34.842Z,101443.69
2022-10-28T12:59:07.783Z,101433.72
2022-10-28T13:01:36.651Z,101435.59
2022-10-28T13:04:06.355Z,101438.19
2022-10-28T13:07:01.492Z,101429.28
2022-10-28T13:09:59.430Z,101431.34
2022-10-28T13:12:57.128Z,101422.59
2022-10-28T13:15:36.414Z,101426.97
2022-10-28T13:18:29.819Z,101419.38
2022-10-28T13:21:02.116Z,101429.50
2022-10-28T13:23:29.988Z,101425.84
2022-10-28T13:26:01.138Z,101428.22
2022-10-28T13:28:44.082Z,101429.41
2022-10-28T13:31:17.017Z,101433.06
2022-10-28T13:34:02.562Z,101430.53
2022-10-28T13:36:36.466Z,101436.06
2022-10-28T13:39:38.482Z,101425.09
2022-10-28T13:42:23.727Z,101438.28
2022-10-28T13:45:03.690Z,101440.75
2022-10-28T13:47:33.596Z,101434.91
2022-10-28T13:50:10.962Z,101431.28
2022-10-28T13:52:40.160Z,101428.66
2022-10-28T13:55:14.494Z,101428.41
2022-10-28T13:57:45.050Z,101426.63
2022-10-28T18:02:31.230Z,101416.31
2022-10-28T19:22:11.055Z,101370.50
2022-10-28T19:33:59.370Z,101379.16
2022-10-28T19:42:21.644Z,101381.06
2022-10-28T19:46:14.301Z,101381.78
2022-10-28T19:50:19.256Z,101379.06
2022-10-28T20:21:12.343Z,101393.78
2022-10-28T20:36:57.840Z,101396.66
2022-10-28T21:16:05.172Z,101384.62
2022-10-28T21:24:00.693Z,101385.34
2022-10-28T21:27:51.981Z,101385.28
2022-10-28T23:23:37.323Z,101334.66
